Sparta, WI (54656)

9:57 AM CDT on March 30, 2017 (GMT -0500)
Sparta-Fort McCoy | | Change Station

Elev 837 ft 43.96 °N, 90.74 °W | Updated 22 minutes ago

Rain
Rain
36 °F
Feels Like 28 °F
N
14
Wind Variable Wind from ENE
Gusts 20 mph

Today
High -- | Low -- °F
--% Chance of Precip.
Yesterday
High -- | Low -- °F
Precip. -- in
Pressure 29.88 in
Visibility 5.0 miles
Clouds Overcast 1000 ft
Windchill 28 °F
Dew Point 35 °F
Humidity 96%
Rainfall 0.08 in
Snow Depth Not available.
6:47 AM 7:28 PM
Waxing Crescent, 9% visible
METAR KCMY 301435Z AUTO 06012G17KT 5SM -RA OVC010 03/02 A2988 RMK AO2 T00250019
Pressure 29.88 in
Visibility 5.0 miles
Clouds Overcast 1000 ft
Windchill 28 °F
Dew Point 35 °F
Humidity 96%
Rainfall 0.08 in
Snow Depth Not available.
6:47 AM 7:28 PM
Waxing Crescent, 9% visible
METAR KCMY 301435Z AUTO 06012G17KT 5SM -RA OVC010 03/02 A2988 RMK AO2 T00250019

Get Severe Weather Alerts

Thanks for signing up!

Be on the lookout for a verification email in your inbox.

You'll start receiving the daily forecast at 8 AM.

×

10-Day Weather Forecast

Almanac

Astronomy

Mar. 30, 2017 Rise Set
Actual Time
Civil Twilight
Nautical Twilight
Astronomical Twilight
Moon
Length of Visible Light
Length of Day
Tomorrow will be .
, % of the Moon is Illuminated

Today's Extremes

State Highs State Lows

Community

WunderPhotos

Upload Photos

1,962,540 photos uploaded!

WunderBlog® & News

Nearby

Air Quality

  Air Quality AQ Index Pollutant
Not available.

Snow Depth

Station Depth Elevation

Earthquake Activity

City Distance Mag. Time & Date
Minimum magnitude displayed is 2.5.

Earthquake Activity

City Distance Mag. Time & Date
Minimum magnitude displayed is 2.5.

Coastal Water Temperatures

Place Temperature

Stations

Nearby Weather Stations

Station Location Temp. Windchill Dew Point Humidity Wind Precip. Elev Updated Type
                   

Watches & Warnings

There are currently no watches in effect.